Time;durP1;ratioP1;P1;durP2;ratioP2;P2;SDS_P1;SDS_P2;PMS_P1;PMS_P2;Temp;Humidity;BMP_temperature;BMP_pressure;BME280_temperature;BME280_humidity;BME280_pressure;Samples;Min_cycle;Max_cycle;Signal;HPM_P1;HPM_P2
2023/04/20 00:02:40;;;;;;;3.75;2.60;;;17.30;46.90;;;;;;6262400;28;20064;-70
2023/04/20 00:05:42;;;;;;;9.75;2.30;;;17.30;46.80;;;;;;6262977;28;20079;-71
2023/04/20 00:08:42;;;;;;;4.82;2.63;;;17.30;46.80;;;;;;6262225;28;20081;-69
2023/04/20 00:11:44;;;;;;;4.63;2.55;;;17.30;47.00;;;;;;6245947;28;20029;-70
2023/04/20 00:14:44;;;;;;;4.63;2.45;;;17.30;47.30;;;;;;6249456;28;20048;-71
2023/04/20 00:17:47;;;;;;;4.38;2.53;;;17.30;47.50;;;;;;6267153;28;20112;-69
2023/04/20 00:20:48;;;;;;;4.78;2.55;;;17.20;47.60;;;;;;6248670;28;20124;-69
2023/04/20 00:23:49;;;;;;;6.72;2.40;;;17.20;47.70;;;;;;6266804;28;20416;-70
2023/04/20 00:26:50;;;;;;;5.53;2.42;;;17.10;47.90;;;;;;6248635;28;20043;-70
2023/04/20 00:29:52;;;;;;;4.15;2.25;;;17.10;47.90;;;;;;6267086;28;20527;-70
2023/04/20 00:32:53;;;;;;;4.18;2.65;;;17.00;48.00;;;;;;6266439;28;20025;-72
2023/04/20 00:35:55;;;;;;;8.57;2.75;;;17.00;48.20;;;;;;6266761;28;20086;-69
2023/04/20 00:38:58;;;;;;;6.05;2.83;;;17.00;48.30;;;;;;6248158;28;20052;-70
2023/04/20 00:42:08;;;;;;;3.50;2.28;;;16.90;48.30;;;;;;6266158;28;20021;-71
2023/04/20 00:45:09;;;;;;;3.97;2.25;;;16.90;48.30;;;;;;6266228;28;20323;-69
2023/04/20 00:48:11;;;;;;;4.15;2.40;;;16.80;48.20;;;;;;6265917;28;20017;-71
2023/04/20 00:51:13;;;;;;;3.78;2.35;;;16.80;48.20;;;;;;6266408;28;20036;-68
2023/04/20 00:54:14;;;;;;;3.47;2.15;;;16.70;48.30;;;;;;6247682;28;20035;-70
2023/04/20 00:57:22;;;;;;;3.45;1.95;;;16.60;48.40;;;;;;6247508;28;20033;-69
2023/04/20 01:00:25;;;;;;;3.22;2.13;;;16.60;48.60;;;;;;6266123;28;20473;-70
2023/04/20 01:03:25;;;;;;;2.95;2.10;;;16.60;48.80;;;;;;6266351;28;20592;-71
2023/04/20 01:06:26;;;;;;;4.35;2.50;;;16.50;48.80;;;;;;6248362;28;20041;-68
2023/04/20 01:09:28;;;;;;;5.95;2.67;;;16.50;48.90;;;;;;6265864;28;20076;-73
2023/04/20 01:12:29;;;;;;;6.45;2.45;;;16.50;48.90;;;;;;6248048;28;20029;-72
2023/04/20 01:15:30;;;;;;;3.42;2.08;;;16.40;48.80;;;;;;6231741;28;20029;-69
2023/04/20 01:18:45;;;;;;;4.32;2.25;;;16.50;48.90;;;;;;6248033;28;20037;-70
2023/04/20 01:21:46;;;;;;;4.47;2.30;;;16.40;48.90;;;;;;6265333;28;20109;-69
2023/04/20 01:24:47;;;;;;;3.63;2.25;;;16.40;48.80;;;;;;6230210;28;20446;-71
2023/04/20 01:27:48;;;;;;;5.15;2.75;;;16.40;48.80;;;;;;6247439;28;20040;-69
2023/04/20 01:30:49;;;;;;;3.45;2.10;;;16.40;48.70;;;;;;6265754;28;20121;-69
2023/04/20 01:33:50;;;;;;;6.43;2.45;;;16.30;48.60;;;;;;6247659;28;20551;-70
2023/04/20 01:36:54;;;;;;;4.50;2.47;;;16.40;48.70;;;;;;6265381;28;20021;-69
2023/04/20 01:39:55;;;;;;;5.05;2.40;;;16.40;49.00;;;;;;6247429;28;20430;-70
2023/04/20 01:42:56;;;;;;;5.82;2.55;;;16.30;49.00;;;;;;6265505;28;20024;-70
2023/04/20 01:45:58;;;;;;;5.18;2.42;;;16.30;49.10;;;;;;6247455;28;20024;-69
2023/04/20 01:48:59;;;;;;;6.55;2.40;;;16.30;49.30;;;;;;6265091;28;20028;-70
2023/04/20 01:52:00;;;;;;;3.95;2.38;;;16.30;49.40;;;;;;6247382;28;20123;-71
2023/04/20 01:55:01;;;;;;;2.92;2.42;;;16.30;49.40;;;;;;6247251;28;20037;-71
2023/04/20 01:58:02;;;;;;;4.10;2.25;;;16.30;49.60;;;;;;6265163;28;20135;-70
2023/04/20 02:01:04;;;;;;;3.40;2.33;;;16.20;49.60;;;;;;6246806;28;20025;-70
2023/04/20 02:04:05;;;;;;;6.32;2.28;;;16.20;49.70;;;;;;6247247;28;20445;-69
2023/04/20 02:07:06;;;;;;;7.35;2.50;;;16.20;49.70;;;;;;6246271;28;20028;-70
2023/04/20 02:10:07;;;;;;;3.22;2.10;;;16.20;49.90;;;;;;6246571;28;20033;-70
2023/04/20 02:13:08;;;;;;;2.95;2.10;;;16.20;50.60;;;;;;6264671;28;20041;-70
2023/04/20 02:16:09;;;;;;;3.03;2.20;;;16.20;50.30;;;;;;6230205;28;20032;-69
2023/04/20 02:19:10;;;;;;;3.20;2.30;;;16.10;50.50;;;;;;6246124;28;20043;-71
2023/04/20 02:22:12;;;;;;;3.88;2.20;;;16.00;50.50;;;;;;6263904;28;20029;-69
2023/04/20 02:25:13;;;;;;;5.43;2.10;;;16.00;50.60;;;;;;6264399;28;20477;-70
2023/04/20 02:28:14;;;;;;;3.53;2.03;;;16.00;50.60;;;;;;6264056;28;20029;-71
2023/04/20 02:31:15;;;;;;;3.20;1.83;;;16.00;50.70;;;;;;6263938;28;20044;-69
2023/04/20 02:34:18;;;;;;;4.47;2.65;;;16.00;50.70;;;;;;6245528;28;20024;-69
2023/04/20 02:37:19;;;;;;;3.72;2.30;;;15.90;50.70;;;;;;6229002;28;20812;-68
2023/04/20 02:40:20;;;;;;;7.82;2.20;;;15.90;50.70;;;;;;6245715;28;20393;-70
2023/04/20 02:43:21;;;;;;;3.22;1.83;;;15.90;50.90;;;;;;6244167;28;20045;-71
2023/04/20 02:46:22;;;;;;;4.18;2.67;;;15.80;51.00;;;;;;6245539;28;20059;-70
2023/04/20 02:49:23;;;;;;;4.78;2.63;;;15.90;51.20;;;;;;6245997;28;20055;-69
2023/04/20 02:52:24;;;;;;;3.53;2.28;;;15.80;51.50;;;;;;6245232;28;20033;-70
2023/04/20 02:55:27;;;;;;;5.13;2.25;;;15.70;51.60;;;;;;6229369;28;20037;-69
2023/04/20 02:58:32;;;;;;;3.97;2.55;;;15.70;51.80;;;;;;6261427;28;20128;-69
2023/04/20 03:01:51;;;;;;;10.57;2.67;;;15.70;51.70;;;;;;6263498;28;20037;-69
2023/04/20 03:04:58;;;;;;;4.50;2.53;;;15.60;51.60;;;;;;6245335;28;20151;-70
2023/04/20 03:07:59;;;;;;;6.40;2.33;;;15.70;51.40;;;;;;6245067;28;20437;-69
2023/04/20 03:11:01;;;;;;;3.33;2.45;;;15.80;51.40;;;;;;6244921;28;20035;-71
2023/04/20 03:14:02;;;;;;;5.15;2.60;;;15.70;51.30;;;;;;6245378;28;20127;-69
2023/04/20 03:17:03;;;;;;;5.72;2.47;;;15.70;51.40;;;;;;6228262;28;20432;-69
2023/04/20 03:20:04;;;;;;;3.13;2.30;;;15.60;51.40;;;;;;6245106;28;20460;-68
2023/04/20 03:23:05;;;;;;;3.00;2.40;;;15.60;51.40;;;;;;6245003;28;20815;-69
2023/04/20 03:26:07;;;;;;;5.07;2.40;;;15.70;51.40;;;;;;6244994;28;20350;-69
2023/04/20 03:29:29;;;;;;;6.05;2.50;;;15.60;51.40;;;;;;6244649;28;20033;-71
2023/04/20 03:32:30;;;;;;;6.28;2.47;;;15.60;51.40;;;;;;6263187;28;20202;-70
2023/04/20 03:35:31;;;;;;;5.63;2.38;;;15.50;51.50;;;;;;6244838;28;20122;-70
2023/04/20 03:38:32;;;;;;;3.83;2.10;;;15.50;51.70;;;;;;6228258;28;20140;-71
2023/04/20 03:41:33;;;;;;;4.47;2.25;;;15.50;51.80;;;;;;6244660;28;20120;-70
2023/04/20 03:44:34;;;;;;;7.20;3.20;;;15.50;51.90;;;;;;6228079;28;20429;-70
2023/04/20 03:47:37;;;;;;;4.82;2.17;;;15.50;51.80;;;;;;6243473;28;20085;-69
2023/04/20 03:50:37;;;;;;;3.47;2.38;;;15.50;51.70;;;;;;6244299;28;20036;-68
2023/04/20 03:53:39;;;;;;;8.82;2.70;;;15.60;51.70;;;;;;6244717;28;20056;-71
2023/04/20 03:56:43;;;;;;;4.30;2.50;;;15.50;51.50;;;;;;6244509;28;20045;-70
2023/04/20 03:59:44;;;;;;;6.45;2.50;;;15.50;51.60;;;;;;6244177;28;20869;-70
2023/04/20 04:02:50;;;;;;;4.07;2.67;;;15.50;51.60;;;;;;6244637;28;20039;-70
2023/04/20 04:05:58;;;;;;;5.10;2.43;;;15.50;51.70;;;;;;6244706;28;20025;-69
2023/04/20 04:08:59;;;;;;;8.20;2.50;;;15.50;51.80;;;;;;6244316;28;20275;-71
2023/04/20 04:12:00;;;;;;;4.47;2.60;;;15.50;51.80;;;;;;6227586;28;20055;-69
2023/04/20 04:15:03;;;;;;;4.97;2.70;;;15.50;52.00;;;;;;6244192;28;20412;-71
2023/04/20 04:18:08;;;;;;;4.72;2.88;;;15.40;52.10;;;;;;6244520;28;20037;-69
2023/04/20 04:21:11;;;;;;;7.32;3.22;;;15.40;52.30;;;;;;6244701;28;20565;-70
2023/04/20 04:24:15;;;;;;;4.55;2.35;;;15.30;52.40;;;;;;6245546;28;20087;-69
2023/04/20 04:27:36;;;;;;;5.47;2.97;;;15.30;52.60;;;;;;6244818;28;20036;-69
2023/04/20 04:30:37;;;;;;;5.07;2.65;;;15.30;52.70;;;;;;6244405;28;20458;-69
2023/04/20 04:33:39;;;;;;;5.40;2.88;;;15.30;52.80;;;;;;6244917;28;20103;-71
2023/04/20 04:36:43;;;;;;;6.80;2.30;;;15.20;52.80;;;;;;6228472;28;20083;-70
2023/04/20 04:39:47;;;;;;;4.28;2.55;;;15.20;52.90;;;;;;6244589;28;20040;-72
2023/04/20 04:42:54;;;;;;;5.72;2.50;;;15.20;52.90;;;;;;6229119;28;20625;-71
2023/04/20 04:45:57;;;;;;;11.38;2.67;;;15.20;52.70;;;;;;6244300;28;20036;-71
2023/04/20 04:49:01;;;;;;;5.93;2.58;;;15.20;52.60;;;;;;6243996;28;20390;-69
2023/04/20 04:52:02;;;;;;;5.03;2.70;;;15.20;52.50;;;;;;6244559;28;20064;-68
2023/04/20 04:55:07;;;;;;;3.63;2.58;;;15.20;52.40;;;;;;6243844;28;20029;-70
2023/04/20 04:58:08;;;;;;;7.82;2.97;;;15.20;52.30;;;;;;6246151;28;20036;-69
2023/04/20 05:01:08;;;;;;;3.95;2.35;;;15.20;52.30;;;;;;6266609;28;20115;-69
2023/04/20 05:04:09;;;;;;;4.70;2.25;;;15.20;52.20;;;;;;6266850;28;20587;-71
2023/04/20 05:07:10;;;;;;;4.10;2.30;;;15.40;52.10;;;;;;6266464;28;20552;-71
2023/04/20 05:10:11;;;;;;;3.13;2.05;;;15.30;52.00;;;;;;6248967;28;20636;-70
2023/04/20 05:13:12;;;;;;;3.20;2.10;;;15.30;51.90;;;;;;6266556;28;20397;-71
2023/04/20 05:16:13;;;;;;;5.90;2.50;;;15.30;51.80;;;;;;6266762;28;20151;-72
2023/04/20 05:19:14;;;;;;;7.40;2.47;;;15.30;51.80;;;;;;6266098;28;20040;-71
2023/04/20 05:22:15;;;;;;;4.65;2.35;;;15.30;51.90;;;;;;6247974;28;20033;-69
2023/04/20 05:25:16;;;;;;;9.10;2.35;;;15.30;51.90;;;;;;6266233;28;20025;-71
2023/04/20 05:28:17;;;;;;;6.35;3.10;;;15.30;51.90;;;;;;6266168;28;20067;-69
2023/04/20 05:31:18;;;;;;;4.88;2.47;;;15.40;51.90;;;;;;6247512;28;20040;-71
2023/04/20 05:34:19;;;;;;;4.22;2.50;;;15.40;51.70;;;;;;6265751;28;20194;-70
2023/04/20 05:37:20;;;;;;;4.05;2.50;;;15.50;51.70;;;;;;6265007;28;20029;-70
2023/04/20 05:40:21;;;;;;;8.55;2.80;;;15.50;51.60;;;;;;6266080;28;20036;-71
2023/04/20 05:43:22;;;;;;;8.23;2.75;;;15.60;51.50;;;;;;6247082;28;20465;-72
2023/04/20 05:46:23;;;;;;;5.60;2.90;;;15.70;51.60;;;;;;6266063;28;20029;-70
2023/04/20 05:49:24;;;;;;;4.30;2.72;;;15.80;51.60;;;;;;6247446;28;20090;-68
2023/04/20 05:52:25;;;;;;;4.57;2.40;;;15.80;51.60;;;;;;6265196;28;20112;-72
2023/04/20 05:55:26;;;;;;;8.15;3.28;;;15.80;51.70;;;;;;6247930;28;20071;-70
2023/04/20 05:58:26;;;;;;;7.05;2.78;;;15.80;51.70;;;;;;6265135;28;20064;-71
2023/04/20 06:01:27;;;;;;;4.97;2.97;;;15.80;52.00;;;;;;6265992;28;20202;-70
2023/04/20 06:04:29;;;;;;;4.78;2.58;;;15.70;52.40;;;;;;6265183;28;20191;-71
2023/04/20 06:07:30;;;;;;;6.03;3.08;;;15.70;51.80;;;;;;6264347;28;20127;-71
2023/04/20 06:10:32;;;;;;;6.75;3.05;;;15.70;51.90;;;;;;6246375;28;20242;-71
2023/04/20 06:13:33;;;;;;;7.53;2.65;;;15.70;51.90;;;;;;6264925;28;21302;-70
2023/04/20 06:16:34;;;;;;;6.50;3.05;;;15.80;51.90;;;;;;6264961;28;20032;-70
2023/04/20 06:19:35;;;;;;;4.95;2.78;;;15.80;51.70;;;;;;6264144;28;20028;-70
2023/04/20 06:22:41;;;;;;;4.82;2.88;;;15.90;51.60;;;;;;6246599;28;20028;-70
2023/04/20 06:25:42;;;;;;;4.55;2.58;;;15.90;51.50;;;;;;6264905;28;20036;-71
2023/04/20 06:28:46;;;;;;;5.32;2.50;;;15.90;51.50;;;;;;6264081;28;20082;-71
2023/04/20 06:31:46;;;;;;;14.00;3.15;;;15.90;51.50;;;;;;6230389;28;20029;-69
2023/04/20 06:34:47;;;;;;;6.70;3.00;;;15.90;51.60;;;;;;6264380;28;20082;-69
2023/04/20 06:37:48;;;;;;;6.25;2.65;;;15.90;51.80;;;;;;6264317;28;20193;-71
2023/04/20 06:40:49;;;;;;;5.93;3.22;;;15.80;51.90;;;;;;6264036;28;20059;-70
2023/04/20 06:43:50;;;;;;;4.70;2.95;;;15.80;52.20;;;;;;6264398;28;20028;-69
2023/04/20 06:46:51;;;;;;;5.78;2.50;;;15.70;52.40;;;;;;6245891;28;20044;-69
2023/04/20 06:49:52;;;;;;;5.38;3.63;;;15.70;52.60;;;;;;6263610;28;20017;-72
2023/04/20 06:52:53;;;;;;;5.45;3.13;;;15.70;52.70;;;;;;6264193;28;20099;-71
2023/04/20 06:55:54;;;;;;;5.15;3.13;;;15.70;52.80;;;;;;6264669;28;20028;-69
2023/04/20 06:58:55;;;;;;;7.80;3.97;;;15.80;52.90;;;;;;6245418;28;20547;-70
2023/04/20 07:01:56;;;;;;;7.05;3.00;;;15.90;52.90;;;;;;6263189;28;20029;-69
2023/04/20 07:05:01;;;;;;;5.60;3.80;;;16.00;52.90;;;;;;6263187;28;20465;-71
2023/04/20 07:08:02;;;;;;;4.78;3.08;;;16.10;52.80;;;;;;6245284;28;20037;-69
2023/04/20 07:11:02;;;;;;;7.78;3.25;;;16.20;52.90;;;;;;6262910;28;20048;-71
2023/04/20 07:14:03;;;;;;;7.07;4.03;;;16.20;52.90;;;;;;6245070;28;20373;-70
2023/04/20 07:17:04;;;;;;;5.57;3.45;;;16.30;53.00;;;;;;6244304;28;20032;-72
2023/04/20 07:20:09;;;;;;;12.18;4.07;;;16.30;53.10;;;;;;6244035;28;20045;-70
2023/04/20 07:23:10;;;;;;;6.72;3.35;;;16.30;53.30;;;;;;6261991;28;20025;-69
2023/04/20 07:26:10;;;;;;;10.95;3.25;;;16.20;53.50;;;;;;6244845;28;20674;-70
2023/04/20 07:29:11;;;;;;;7.45;3.38;;;16.20;53.70;;;;;;6244251;28;20043;-71
2023/04/20 07:32:13;;;;;;;9.13;3.10;;;16.10;54.00;;;;;;6244715;28;20040;-71
2023/04/20 07:35:14;;;;;;;9.40;3.55;;;16.10;54.30;;;;;;6263256;28;20025;-71
2023/04/20 07:38:15;;;;;;;12.13;3.63;;;16.00;54.40;;;;;;6262746;28;20109;-71
2023/04/20 07:41:16;;;;;;;8.05;3.10;;;16.00;54.40;;;;;;6244635;28;20422;-69
2023/04/20 07:44:17;;;;;;;5.57;3.17;;;16.00;54.70;;;;;;6243714;28;20442;-70
2023/04/20 07:47:18;;;;;;;9.15;4.07;;;15.90;54.90;;;;;;6262776;28;20109;-69
2023/04/20 07:50:18;;;;;;;9.77;3.75;;;15.90;55.20;;;;;;6244640;28;20033;-69
2023/04/20 07:53:19;;;;;;;10.48;3.45;;;15.80;55.50;;;;;;6262679;28;20084;-71
2023/04/20 07:56:20;;;;;;;11.57;4.50;;;15.80;55.60;;;;;;6245061;28;20033;-69
2023/04/20 07:59:21;;;;;;;11.40;3.85;;;15.80;55.70;;;;;;6262467;28;20045;-70
2023/04/20 08:02:22;;;;;;;6.95;3.60;;;15.80;55.60;;;;;;6262277;28;20037;-72
2023/04/20 08:05:23;;;;;;;6.60;3.95;;;15.80;55.60;;;;;;6245151;28;20021;-69
2023/04/20 08:08:24;;;;;;;7.18;3.85;;;15.90;55.80;;;;;;6262163;28;20462;-70
2023/04/20 08:11:25;;;;;;;9.52;3.63;;;15.90;55.80;;;;;;6262288;28;20071;-71
2023/04/20 08:14:26;;;;;;;9.68;4.18;;;15.90;55.70;;;;;;6262633;28;20061;-70
2023/04/20 08:17:27;;;;;;;6.97;3.40;;;15.90;55.60;;;;;;6262442;28;20613;-70
2023/04/20 08:20:28;;;;;;;13.55;3.90;;;15.90;55.70;;;;;;6262314;28;20037;-70
2023/04/20 08:23:29;;;;;;;10.02;3.80;;;16.00;55.60;;;;;;6262381;28;20327;-71
2023/04/20 08:26:31;;;;;;;6.70;3.92;;;16.00;55.40;;;;;;6262123;28;20430;-71
2023/04/20 08:29:32;;;;;;;10.95;4.38;;;16.10;55.30;;;;;;6262183;28;20041;-72
2023/04/20 08:32:32;;;;;;;8.05;3.65;;;16.20;55.40;;;;;;6263558;28;20823;-72
2023/04/20 08:35:33;;;;;;;19.15;4.07;;;16.20;55.40;;;;;;6266807;28;20513;-69
2023/04/20 08:38:34;;;;;;;9.50;3.95;;;16.20;55.40;;;;;;6266661;28;20515;-72
2023/04/20 08:41:35;;;;;;;6.63;4.43;;;16.30;55.40;;;;;;6249262;28;20118;-70
2023/04/20 08:44:36;;;;;;;10.18;5.05;;;16.50;55.40;;;;;;6266535;28;20012;-69
2023/04/20 08:47:39;;;;;;;7.18;4.57;;;16.70;55.10;;;;;;6266474;28;20737;-70
2023/04/20 08:50:40;;;;;;;7.43;4.50;;;16.90;54.90;;;;;;6248191;28;20045;-72
2023/04/20 08:53:41;;;;;;;8.63;4.35;;;17.10;54.50;;;;;;6266212;28;20500;-72
2023/04/20 08:56:45;;;;;;;9.48;4.75;;;17.20;54.20;;;;;;6248380;28;20033;-70
2023/04/20 08:59:46;;;;;;;11.02;5.03;;;17.20;54.00;;;;;;6265944;28;20029;-70
2023/04/20 09:02:50;;;;;;;10.48;5.22;;;17.20;54.00;;;;;;6266412;28;20029;-69
2023/04/20 09:05:51;;;;;;;8.05;4.70;;;17.20;53.80;;;;;;6265989;28;20100;-71
2023/04/20 09:08:53;;;;;;;7.25;4.22;;;17.30;53.90;;;;;;6248300;28;20040;-70
2023/04/20 09:12:05;;;;;;;8.13;4.20;;;17.30;53.90;;;;;;6266125;28;20044;-71
2023/04/20 09:15:07;;;;;;;8.25;4.70;;;17.50;54.00;;;;;;6266031;28;20098;-70
2023/04/20 09:18:14;;;;;;;11.25;5.00;;;17.60;53.50;;;;;;6266364;28;20125;-70
2023/04/20 09:21:15;;;;;;;10.93;5.15;;;17.70;53.20;;;;;;6265467;28;20102;-72
2023/04/20 09:24:16;;;;;;;9.90;4.40;;;17.90;52.90;;;;;;6265698;28;20028;-69
2023/04/20 09:27:18;;;;;;;9.68;4.65;;;18.00;52.60;;;;;;6265921;28;20383;-71
2023/04/20 09:30:19;;;;;;;10.85;4.90;;;18.30;52.30;;;;;;6265823;28;20127;-71
2023/04/20 09:33:27;;;;;;;10.15;4.45;;;18.40;52.20;;;;;;6247649;28;20052;-71
2023/04/20 09:36:38;;;;;;;7.85;4.20;;;18.60;51.70;;;;;;6265780;28;20408;-70
2023/04/20 09:39:42;;;;;;;8.25;4.53;;;18.90;51.60;;;;;;6247747;28;20029;-71
2023/04/20 09:42:44;;;;;;;9.07;3.97;;;19.10;51.20;;;;;;6247227;28;20025;-69
2023/04/20 09:45:44;;;;;;;14.23;5.07;;;19.20;50.70;;;;;;6264036;28;20355;-71
2023/04/20 09:48:46;;;;;;;7.68;4.63;;;19.30;50.60;;;;;;6264646;28;20059;-71
2023/04/20 09:51:48;;;;;;;8.45;4.47;;;19.40;50.50;;;;;;6265177;28;20043;-70
2023/04/20 09:54:50;;;;;;;6.70;4.05;;;19.50;50.20;;;;;;6264704;28;20024;-68
2023/04/20 09:57:53;;;;;;;8.93;4.50;;;19.70;49.90;;;;;;6264320;28;20442;-70
2023/04/20 10:00:54;;;;;;;7.68;4.22;;;20.00;49.30;;;;;;6265296;28;20060;-70
2023/04/20 10:03:55;;;;;;;8.27;4.18;;;20.10;48.80;;;;;;6265572;28;20029;-73
2023/04/20 10:07:02;;;;;;;7.43;3.90;;;20.20;48.40;;;;;;6265576;28;20029;-70
2023/04/20 10:10:11;;;;;;;11.05;3.67;;;20.30;48.00;;;;;;6263962;28;20519;-72
2023/04/20 10:13:13;;;;;;;5.60;3.70;;;20.40;47.70;;;;;;6230474;28;20130;-71
2023/04/20 10:16:17;;;;;;;5.57;3.40;;;20.20;47.30;;;;;;6264981;28;20029;-71
2023/04/20 10:19:18;;;;;;;11.85;4.32;;;20.00;47.50;;;;;;6264711;28;20873;-70
2023/04/20 10:22:32;;;;;;;11.35;4.35;;;19.90;47.60;;;;;;6246394;28;20039;-70
2023/04/20 10:25:33;;;;;;;8.10;4.25;;;19.70;47.70;;;;;;6264620;28;20037;-69
2023/04/20 10:28:39;;;;;;;7.93;4.22;;;19.50;48.10;;;;;;6264501;28;20354;-69
2023/04/20 10:31:41;;;;;;;9.88;4.60;;;19.30;48.90;;;;;;6264199;28;20441;-71
2023/04/20 10:34:42;;;;;;;6.95;3.50;;;19.00;49.50;;;;;;6246190;28;20041;-70
2023/04/20 10:37:47;;;;;;;9.30;3.60;;;18.80;49.90;;;;;;6246290;28;20020;-70
2023/04/20 10:40:48;;;;;;;6.38;3.40;;;18.60;50.20;;;;;;6264362;28;20033;-70
2023/04/20 10:43:49;;;;;;;10.65;3.38;;;18.50;50.70;;;;;;6265368;28;20021;-71
2023/04/20 10:46:50;;;;;;;7.18;3.67;;;18.30;51.70;;;;;;6246821;28;20041;-71
2023/04/20 10:49:51;;;;;;;8.73;3.85;;;18.00;52.60;;;;;;6246515;28;20128;-71
2023/04/20 10:52:52;;;;;;;7.70;4.35;;;17.60;53.60;;;;;;6246178;28;20446;-73
2023/04/20 10:55:59;;;;;;;7.68;5.10;;;17.40;54.70;;;;;;6263130;28;20104;-71
2023/04/20 10:59:10;;;;;;;12.95;5.95;;;17.10;55.80;;;;;;6245501;28;20039;-69
2023/04/20 11:02:13;;;;;;;12.60;6.18;;;17.10;56.40;;;;;;6264692;28;20446;-70
2023/04/20 11:05:14;;;;;;;13.43;6.22;;;17.00;57.00;;;;;;6263860;28;20504;-72
2023/04/20 11:08:15;;;;;;;9.48;5.72;;;17.00;57.50;;;;;;6263251;28;20064;-71
2023/04/20 11:11:26;;;;;;;7.35;4.63;;;17.00;57.60;;;;;;6263024;28;20051;-71
2023/04/20 11:14:27;;;;;;;8.20;4.18;;;17.20;57.40;;;;;;6246008;28;20016;-71
2023/04/20 11:17:35;;;;;;;15.45;4.70;;;17.40;56.90;;;;;;6262841;28;20044;-71
2023/04/20 11:20:36;;;;;;;7.10;4.13;;;17.60;56.50;;;;;;6246165;28;20501;-70
2023/04/20 11:23:38;;;;;;;7.22;3.70;;;17.80;56.20;;;;;;6263883;28;20095;-70
2023/04/20 11:26:42;;;;;;;4.68;2.75;;;18.10;55.80;;;;;;6264196;28;20021;-71
2023/04/20 11:29:43;;;;;;;4.40;2.55;;;18.40;55.50;;;;;;6263709;28;20311;-70
2023/04/20 11:32:53;;;;;;;5.30;3.15;;;18.70;55.00;;;;;;6263759;28;20045;-72
2023/04/20 11:35:58;;;;;;;8.38;3.10;;;18.90;54.60;;;;;;6263696;28;20037;-71
2023/04/20 11:39:08;;;;;;;6.18;3.50;;;19.20;54.30;;;;;;6263052;28;20152;-71
2023/04/20 11:42:09;;;;;;;8.95;4.55;;;19.40;54.10;;;;;;6263028;28;20450;-69
2023/04/20 11:45:10;;;;;;;6.90;3.80;;;19.60;53.60;;;;;;6262781;28;20021;-71
2023/04/20 11:48:11;;;;;;;8.27;3.80;;;19.70;53.30;;;;;;6262110;28;20029;-71
2023/04/20 11:51:13;;;;;;;8.98;5.35;;;19.90;53.10;;;;;;6244493;28;20642;-73
2023/04/20 11:54:14;;;;;;;9.23;4.45;;;19.90;52.80;;;;;;6262382;28;20071;-70
2023/04/20 11:57:15;;;;;;;7.82;3.97;;;19.90;52.70;;;;;;6243969;28;20021;-72
2023/04/20 12:00:17;;;;;;;10.55;4.85;;;19.90;52.40;;;;;;6262693;28;20098;-70
2023/04/20 12:03:17;;;;;;;8.57;5.20;;;19.70;52.20;;;;;;6262468;28;20111;-70
2023/04/20 12:06:19;;;;;;;10.63;5.60;;;19.60;52.30;;;;;;6262300;28;20397;-72
2023/04/20 12:09:20;;;;;;;16.30;7.45;;;19.40;52.40;;;;;;6267058;28;20106;-72
2023/04/20 12:12:22;;;;;;;13.02;6.82;;;19.30;52.70;;;;;;6249433;28;20053;-72
2023/04/20 12:15:23;;;;;;;14.73;7.68;;;19.40;53.10;;;;;;6249748;28;20036;-70
2023/04/20 12:18:24;;;;;;;14.15;7.40;;;19.30;53.20;;;;;;6267568;28;20040;-71
2023/04/20 12:21:26;;;;;;;13.80;7.93;;;19.30;53.10;;;;;;6267255;28;21166;-70
2023/04/20 12:24:27;;;;;;;15.65;7.03;;;19.40;53.00;;;;;;6266924;28;20049;-71
2023/04/20 12:27:27;;;;;;;13.15;7.38;;;19.60;52.80;;;;;;6267225;28;20083;-70
2023/04/20 12:30:28;;;;;;;13.13;7.13;;;19.70;52.50;;;;;;6249121;28;20033;-72
2023/04/20 12:33:30;;;;;;;13.27;7.60;;;19.90;52.10;;;;;;6267295;28;20136;-72
2023/04/20 12:36:31;;;;;;;13.00;6.57;;;20.10;51.80;;;;;;6267264;28;20060;-71
2023/04/20 12:39:32;;;;;;;11.45;4.53;;;20.30;51.60;;;;;;6266916;28;20032;-73
2023/04/20 12:42:33;;;;;;;7.63;3.80;;;20.30;51.10;;;;;;6266914;28;20029;-71
2023/04/20 12:45:34;;;;;;;4.65;3.13;;;20.30;50.70;;;;;;6248782;28;20399;-71
2023/04/20 12:48:44;;;;;;;7.38;4.05;;;20.40;50.50;;;;;;6267019;28;20049;-70
2023/04/20 12:51:45;;;;;;;7.30;4.00;;;20.50;50.20;;;;;;6266543;28;20512;-70
2023/04/20 12:54:46;;;;;;;8.90;4.63;;;20.70;49.70;;;;;;6248220;28;20048;-71
2023/04/20 12:57:47;;;;;;;9.70;3.65;;;20.80;49.30;;;;;;6266586;28;20543;-72
2023/04/20 13:00:48;;;;;;;8.25;4.55;;;21.00;49.00;;;;;;6266419;28;20526;-70
2023/04/20 13:03:50;;;;;;;14.85;4.03;;;21.10;48.80;;;;;;6248341;28;20029;-69
2023/04/20 13:06:51;;;;;;;8.77;5.00;;;21.10;48.70;;;;;;6266359;28;20061;-69
2023/04/20 13:09:52;;;;;;;7.88;5.07;;;21.10;48.80;;;;;;6263879;28;20033;-71
2023/04/20 13:12:53;;;;;;;12.68;6.43;;;21.00;48.80;;;;;;6266309;28;20036;-73
2023/04/20 13:15:54;;;;;;;11.52;5.78;;;20.90;49.00;;;;;;6266629;28;20041;-73
2023/04/20 13:18:55;;;;;;;14.10;6.80;;;20.80;49.20;;;;;;6265822;28;20060;-72
2023/04/20 13:21:57;;;;;;;12.38;6.00;;;20.60;49.50;;;;;;6266140;28;20032;-70
2023/04/20 13:24:58;;;;;;;14.93;7.35;;;20.50;49.50;;;;;;6266074;28;20049;-70
2023/04/20 13:28:00;;;;;;;15.95;7.78;;;20.40;49.70;;;;;;6266051;28;20025;-71
2023/04/20 13:31:01;;;;;;;13.85;6.97;;;20.40;49.70;;;;;;6263679;28;20052;-70
2023/04/20 13:34:02;;;;;;;12.35;6.45;;;20.40;49.70;;;;;;6266141;28;20033;-71
2023/04/20 13:37:03;;;;;;;11.15;6.22;;;20.60;49.40;;;;;;6265180;28;20458;-73
2023/04/20 13:40:05;;;;;;;10.57;6.15;;;20.90;48.90;;;;;;6266054;28;20104;-71
2023/04/20 13:43:06;;;;;;;12.63;6.35;;;21.20;48.40;;;;;;6263522;28;20036;-72
2023/04/20 13:46:07;;;;;;;13.32;6.10;;;21.50;47.80;;;;;;6247414;28;20342;-71
2023/04/20 13:49:08;;;;;;;11.98;6.60;;;21.70;47.30;;;;;;6264670;28;20063;-71
2023/04/20 13:52:09;;;;;;;11.77;6.35;;;21.60;47.10;;;;;;6265398;28;20029;-70
2023/04/20 13:55:10;;;;;;;11.02;6.57;;;21.40;47.00;;;;;;6264887;28;20167;-72
2023/04/20 13:58:11;;;;;;;9.98;6.03;;;21.20;47.40;;;;;;6264722;28;20445;-69
2023/04/20 14:01:15;;;;;;;11.50;5.20;;;21.00;47.70;;;;;;6247272;28;20033;-71
2023/04/20 14:04:16;;;;;;;11.30;5.50;;;20.90;47.90;;;;;;6247222;28;20424;-72
2023/04/20 14:07:17;;;;;;;10.50;5.30;;;21.00;47.70;;;;;;6265209;28;20112;-70
2023/04/20 14:10:18;;;;;;;11.93;5.85;;;21.10;47.50;;;;;;6247498;28;20484;-71
2023/04/20 14:13:20;;;;;;;11.02;5.43;;;21.10;47.50;;;;;;6246876;28;20033;-70
2023/04/20 14:16:21;;;;;;;12.25;6.05;;;21.10;47.30;;;;;;6265453;28;20407;-70
2023/04/20 14:19:22;;;;;;;9.32;5.40;;;21.20;47.20;;;;;;6265243;28;20488;-72
2023/04/20 14:22:23;;;;;;;8.65;5.13;;;21.20;47.10;;;;;;6265086;28;20037;-71
2023/04/20 14:25:24;;;;;;;12.38;4.70;;;21.20;47.10;;;;;;6265284;28;20029;-70
2023/04/20 14:28:24;;;;;;;8.07;4.35;;;21.30;47.10;;;;;;6246980;28;20109;-72
2023/04/20 14:31:25;;;;;;;8.20;4.15;;;21.20;46.90;;;;;;6245121;28;20389;-70
2023/04/20 14:34:26;;;;;;;10.82;4.22;;;21.30;46.80;;;;;;6265276;28;20044;-70
2023/04/20 14:37:27;;;;;;;6.97;3.85;;;21.40;46.60;;;;;;6264702;28;20524;-70
2023/04/20 14:40:28;;;;;;;8.60;4.40;;;21.50;46.00;;;;;;6246466;28;20033;-69
2023/04/20 14:43:31;;;;;;;7.18;3.92;;;21.50;45.80;;;;;;6264257;28;20029;-70
2023/04/20 14:46:31;;;;;;;7.57;3.78;;;21.50;45.80;;;;;;6263718;28;20222;-71
2023/04/20 14:49:33;;;;;;;12.50;3.95;;;21.50;45.80;;;;;;6264254;28;20111;-70
2023/04/20 14:52:34;;;;;;;7.18;3.28;;;21.40;45.80;;;;;;6246087;28;20044;-70
2023/04/20 14:55:35;;;;;;;7.28;4.20;;;21.30;45.80;;;;;;6245881;28;20029;-74
2023/04/20 14:58:36;;;;;;;7.13;4.38;;;21.30;46.00;;;;;;6245812;28;20527;-70
2023/04/20 15:01:37;;;;;;;6.50;3.85;;;21.30;46.00;;;;;;6263651;28;20037;-69
2023/04/20 15:04:37;;;;;;;6.18;3.05;;;21.30;46.10;;;;;;6264082;28;20045;-74
2023/04/20 15:07:38;;;;;;;8.02;4.22;;;21.30;46.10;;;;;;6263672;28;20037;-71
2023/04/20 15:10:39;;;;;;;9.00;3.28;;;21.20;46.10;;;;;;6263518;28;20044;-72
2023/04/20 15:13:41;;;;;;;5.60;3.25;;;21.20;46.20;;;;;;6244913;28;20043;-70
2023/04/20 15:16:42;;;;;;;5.18;2.92;;;21.10;46.10;;;;;;6244772;28;20525;-71
2023/04/20 15:19:44;;;;;;;7.68;3.80;;;21.10;46.20;;;;;;6263396;28;20748;-69
2023/04/20 15:22:45;;;;;;;7.95;3.67;;;21.10;46.40;;;;;;6263079;28;20068;-71
2023/04/20 15:25:46;;;;;;;9.90;3.60;;;21.20;45.70;;;;;;6263170;28;20094;-70
2023/04/20 15:28:48;;;;;;;4.45;2.95;;;21.30;45.60;;;;;;6262789;28;20028;-71
2023/04/20 15:31:49;;;;;;;4.45;2.95;;;21.40;45.50;;;;;;6262888;28;20361;-72
2023/04/20 15:34:50;;;;;;;7.50;3.83;;;21.40;45.30;;;;;;6263353;28;20052;-71
2023/04/20 15:37:51;;;;;;;3.47;2.22;;;21.50;45.30;;;;;;6262790;28;20048;-70
2023/04/20 15:40:52;;;;;;;4.60;2.28;;;21.50;44.80;;;;;;6262462;28;20493;-72
2023/04/20 15:43:53;;;;;;;5.20;2.55;;;21.40;44.50;;;;;;6244479;28;20105;-69
2023/04/20 15:46:54;;;;;;;3.60;2.25;;;21.30;44.40;;;;;;6228695;28;20044;-71